Cape Bata — V7EF2 — position and weather

sailwx.info

Track history (hours):
 
Tides and Currents Weather Stations Pressure Air Temp Water Temp Dewpoint Dewpoint Depression Visibility Wind Speed Wind Dir Waves Ship Positions

Cape Bata

Last reported at 2014-Sep-21 06:19 UTC. Time now 2014-Oct-01 22:24 UTC.
Position N 01°18' E 104°05'.
Warning: this ship's position is 10 days out of date.

Length 274 m; draft 14.1 m.

Type: Tanker. MMSI: 538090162.

Date/timePositionNaut miles runAvg speedWind from/ knotsBaromVisibWave heightAir tempDewpointWater temp
2014-Sep-21 06:19N 01°18' E 104°05'0 0.2
2014-Sep-21 05:10N 01°18' E 104°05'0 0.1
2014-Sep-21 01:22N 01°18' E 104°05'0 0.0
2014-Sep-21 00:31N 01°18' E 104°05'0 0.1
2014-Sep-20 20:19N 01°18' E 104°06'0 0.0
2014-Sep-20 17:28N 01°18' E 104°06'0 0.1
2014-Sep-20 16:31N 01°18' E 104°05'3 3.6
2014-Sep-20 15:33N 01°17' E 104°09'7 7.5
2014-Sep-20 14:33N 01°15' E 104°02'1110.6
2014-Sep-20 13:33N 01°11' E 103°51'9 9.4
2014-Sep-20 12:33N 01°06' E 103°44'11 8.6
2014-Sep-20 11:19N 01°06' E 103°33'1012.8
2014-Sep-20 10:33N 01°12' E 103°25'  
Track history (hours):
 
Tides and Currents Weather Stations Pressure Air Temp Water Temp Dewpoint Dewpoint Depression Visibility Wind Speed Wind Dir Waves Ship Positions

Cape Bata

Last reported at 2014-Sep-21 06:19 UTC. Time now 2014-Oct-01 22:24 UTC.
Position N 01°18' E 104°05'.
Warning: this ship's position is 10 days out of date.

Length 274 m; draft 14.1 m.

Type: Tanker. MMSI: 538090162.

Date/timePositionNaut miles runAvg speedWind from/ knotsBaromVisibWave heightAir tempDewpointWater temp
2014-Sep-21 06:19N 01°18' E 104°05'0 0.2
2014-Sep-21 05:10N 01°18' E 104°05'0 0.1
2014-Sep-21 01:22N 01°18' E 104°05'0 0.0
2014-Sep-21 00:31N 01°18' E 104°05'0 0.1
2014-Sep-20 20:19N 01°18' E 104°06'0 0.0
2014-Sep-20 17:28N 01°18' E 104°06'0 0.1
2014-Sep-20 16:31N 01°18' E 104°05'3 3.6
2014-Sep-20 15:33N 01°17' E 104°09'7 7.5
2014-Sep-20 14:33N 01°15' E 104°02'1110.6
2014-Sep-20 13:33N 01°11' E 103°51'9 9.4
2014-Sep-20 12:33N 01°06' E 103°44'11 8.6
2014-Sep-20 11:19N 01°06' E 103°33'1012.8
2014-Sep-20 10:33N 01°12' E 103°25'  

Dump ship's entire track history